PWSweather.com
Personal Weather Stations
Station Observations
SHAHALMS1
Eftra, Falkenberg, HA

EftraFalkenberg, HA

Lat: 56.85, Lon: 12.65

Elevation: 140

Station Type:

http://hem.passagen.se/risarp101

High Low Average
Temperature 65.1°F18.4°C 58.6°F14.8°C 61.0°F16.1°C
Dew Point 60.7°F15.9°C 55.4°F13.0°C 58.0°F14.4°C
Winds 6.7 mph 10.8 kmh Calm Calm 2.0 mph SE3.2 kmh SE
Wind Gusts 15.4 mph24.8 kmh -- 5.0 mph8.0 kmh
Humidity 97% 79% 90%
Pressure 29.77 in1008.1 mb 29.59 in1002.0 mb -
Precipitation 0.55 in14.0 mm - -
Hour Temp Dew Point Humidity Winds Wind Gusts Pressure Precip Precip Rate Daily Precip Total
12:00 AM 60.1°F15.6°C 55.6°F13.1°C 85% Calm Calm -- 29.77 in1008.1 mb 0.00 in0.0 mm 0.00 in0.0 mm 0.00 in0.0 mm
12:15 AM 59.9°F15.5°C 55.4°F13.0°C 85% Calm Calm -- 29.74 in1007.1 mb 0.00 in0.0 mm 0.00 in0.0 mm 0.00 in0.0 mm
12:30 AM 60.1°F15.6°C 55.6°F13.1°C 85% Calm Calm -- 29.77 in1008.1 mb 0.00 in0.0 mm 0.00 in0.0 mm 0.00 in0.0 mm
12:45 AM 59.9°F15.5°C 55.7°F13.2°C 86% Calm Calm -- 29.77 in1008.1 mb 0.00 in0.0 mm 0.00 in0.0 mm 0.00 in0.0 mm
01:00 AM 59.7°F15.4°C 55.5°F13.1°C 86% Calm Calm -- 29.74 in1007.1 mb 0.00 in0.0 mm 0.00 in0.0 mm 0.00 in0.0 mm
01:15 AM 59.7°F15.4°C 55.8°F13.2°C 87% Calm Calm -- 29.74 in1007.1 mb 0.04 in1.0 mm 0.16 in4.1 mm 0.04 in1.0 mm
01:30 AM 59.4°F15.2°C 55.8°F13.2°C 88% Calm Calm -- 29.74 in1007.1 mb 0.04 in1.0 mm 0.00 in0.0 mm 0.04 in1.0 mm
01:45 AM 59.4°F15.2°C 56.1°F13.4°C 89% Calm Calm -- 29.74 in1007.1 mb 0.04 in1.0 mm 0.00 in0.0 mm 0.04 in1.0 mm
02:00 AM 59.2°F15.1°C 56.2°F13.4°C 90% Calm Calm -- 29.71 in1006.1 mb 0.04 in1.0 mm 0.00 in0.0 mm 0.04 in1.0 mm
02:15 AM 59.0°F15.0°C 56.1°F13.4°C 90% Calm Calm -- 29.74 in1007.1 mb 0.00 in0.0 mm 0.00 in0.0 mm 0.04 in1.0 mm
02:30 AM 58.8°F14.9°C 55.9°F13.3°C 90% Calm Calm -- 29.74 in1007.1 mb 0.00 in0.0 mm 0.00 in0.0 mm 0.04 in1.0 mm
02:45 AM 58.8°F14.9°C 56.2°F13.4°C 91% Calm Calm -- 29.71 in1006.1 mb 0.00 in0.0 mm 0.00 in0.0 mm 0.04 in1.0 mm
03:00 AM 58.8°F14.9°C 56.2°F13.4°C 91% Calm Calm -- 29.71 in1006.1 mb 0.00 in0.0 mm 0.00 in0.0 mm 0.04 in1.0 mm
03:15 AM 58.8°F14.9°C 56.2°F13.4°C 91% Calm Calm -- 29.71 in1006.1 mb 0.00 in0.0 mm 0.00 in0.0 mm 0.04 in1.0 mm
03:30 AM 58.8°F14.9°C 56.5°F13.6°C 92% Calm Calm -- 29.71 in1006.1 mb 0.00 in0.0 mm 0.00 in0.0 mm 0.04 in1.0 mm
03:45 AM 58.8°F14.9°C 56.5°F13.6°C 92% Calm Calm -- 29.71 in1006.1 mb 0.00 in0.0 mm 0.00 in0.0 mm 0.04 in1.0 mm
04:00 AM 58.8°F14.9°C 56.5°F13.6°C 92% Calm Calm -- 29.71 in1006.1 mb 0.00 in0.0 mm 0.00 in0.0 mm 0.04 in1.0 mm
04:15 AM 58.6°F14.8°C 56.3°F13.5°C 92% 0.3 mph NNW0.5 kmh NNW 1.8 mph2.9 kmh 29.71 in1006.1 mb 0.00 in0.0 mm 0.00 in0.0 mm 0.04 in1.0 mm
04:30 AM 58.6°F14.8°C 56.3°F13.5°C 92% Calm Calm -- 29.68 in1005.1 mb 0.00 in0.0 mm 0.00 in0.0 mm 0.04 in1.0 mm
05:00 AM 59.0°F15.0°C 57.0°F13.9°C 93% Calm Calm -- 29.68 in1005.1 mb 0.00 in0.0 mm 0.00 in0.0 mm 0.04 in1.0 mm
05:15 AM 59.0°F15.0°C 57.0°F13.9°C 93% Calm Calm -- 29.68 in1005.1 mb 0.00 in0.0 mm 0.00 in0.0 mm 0.04 in1.0 mm
05:30 AM 59.0°F15.0°C 57.0°F13.9°C 93% Calm Calm -- 29.65 in1004.1 mb 0.00 in0.0 mm 0.00 in0.0 mm 0.04 in1.0 mm
05:45 AM 59.2°F15.1°C 57.2°F14.0°C 93% Calm Calm -- 29.68 in1005.1 mb 0.00 in0.0 mm 0.00 in0.0 mm 0.04 in1.0 mm
06:00 AM 59.4°F15.2°C 57.3°F14.1°C 93% Calm Calm -- 29.68 in1005.1 mb 0.00 in0.0 mm 0.00 in0.0 mm 0.04 in1.0 mm
06:15 AM 59.5°F15.3°C 57.8°F14.3°C 94% Calm Calm -- 29.68 in1005.1 mb 0.00 in0.0 mm 0.00 in0.0 mm 0.04 in1.0 mm
06:30 AM 59.5°F15.3°C 57.5°F14.2°C 93% Calm Calm -- 29.68 in1005.1 mb 0.00 in0.0 mm 0.00 in0.0 mm 0.04 in1.0 mm
06:45 AM 59.7°F15.4°C 58.0°F14.4°C 94% Calm Calm -- 29.68 in1005.1 mb 0.00 in0.0 mm 0.00 in0.0 mm 0.04 in1.0 mm
07:00 AM 60.1°F15.6°C 58.3°F14.6°C 94% Calm Calm -- 29.65 in1004.1 mb 0.00 in0.0 mm 0.00 in0.0 mm 0.04 in1.0 mm
07:15 AM 60.4°F15.8°C 58.7°F14.8°C 94% Calm Calm -- 29.68 in1005.1 mb 0.00 in0.0 mm 0.00 in0.0 mm 0.04 in1.0 mm
07:30 AM 61.0°F16.1°C 59.2°F15.1°C 94% Calm Calm -- 29.65 in1004.1 mb 0.00 in0.0 mm 0.00 in0.0 mm 0.04 in1.0 mm
07:45 AM 61.7°F16.5°C 59.7°F15.4°C 93% Calm Calm -- 29.68 in1005.1 mb 0.00 in0.0 mm 0.00 in0.0 mm 0.04 in1.0 mm
08:00 AM 61.7°F16.5°C 59.4°F15.2°C 92% 1.0 mph E1.6 kmh E 4.3 mph6.9 kmh 29.65 in1004.1 mb 0.00 in0.0 mm 0.00 in0.0 mm 0.04 in1.0 mm
08:15 AM 61.9°F16.6°C 59.5°F15.3°C 92% Calm Calm -- 29.68 in1005.1 mb 0.00 in0.0 mm 0.00 in0.0 mm 0.04 in1.0 mm
08:30 AM 61.9°F16.6°C 59.2°F15.1°C 91% Calm Calm -- 29.68 in1005.1 mb 0.00 in0.0 mm 0.00 in0.0 mm 0.04 in1.0 mm
08:45 AM 61.9°F16.6°C 59.2°F15.1°C 91% Calm Calm -- 29.68 in1005.1 mb 0.00 in0.0 mm 0.00 in0.0 mm 0.04 in1.0 mm
09:00 AM 62.1°F16.7°C 59.4°F15.2°C 91% Calm Calm -- 29.68 in1005.1 mb 0.00 in0.0 mm 0.00 in0.0 mm 0.04 in1.0 mm
09:15 AM 61.9°F16.6°C 58.9°F14.9°C 90% Calm Calm -- 29.68 in1005.1 mb 0.00 in0.0 mm 0.00 in0.0 mm 0.04 in1.0 mm
09:30 AM 61.9°F16.6°C 59.2°F15.1°C 91% Calm Calm -- 29.68 in1005.1 mb 0.00 in0.0 mm 0.00 in0.0 mm 0.04 in1.0 mm
09:45 AM 62.2°F16.8°C 59.6°F15.3°C 91% Calm Calm -- 29.68 in1005.1 mb 0.00 in0.0 mm 0.00 in0.0 mm 0.04 in1.0 mm
10:00 AM 62.2°F16.8°C 59.3°F15.2°C 90% Calm Calm -- 29.68 in1005.1 mb 0.00 in0.0 mm 0.00 in0.0 mm 0.04 in1.0 mm
10:15 AM 62.2°F16.8°C 59.3°F15.2°C 90% Calm Calm -- 29.68 in1005.1 mb 0.00 in0.0 mm 0.00 in0.0 mm 0.04 in1.0 mm
10:30 AM 62.4°F16.9°C 59.4°F15.2°C 90% Calm Calm -- 29.68 in1005.1 mb 0.00 in0.0 mm 0.00 in0.0 mm 0.04 in1.0 mm
10:45 AM 62.2°F16.8°C 59.0°F15.0°C 89% Calm Calm -- 29.68 in1005.1 mb 0.00 in0.0 mm 0.00 in0.0 mm 0.04 in1.0 mm
11:00 AM 62.2°F16.8°C 59.0°F15.0°C 89% Calm Calm -- 29.68 in1005.1 mb 0.00 in0.0 mm 0.00 in0.0 mm 0.04 in1.0 mm
11:15 AM 62.4°F16.9°C 59.1°F15.1°C 89% Calm Calm -- 29.68 in1005.1 mb 0.00 in0.0 mm 0.00 in0.0 mm 0.04 in1.0 mm
11:30 AM 61.9°F16.6°C 58.0°F14.4°C 87% 1.2 mph SW1.9 kmh SW 5.4 mph8.7 kmh 29.68 in1005.1 mb 0.00 in0.0 mm 0.00 in0.0 mm 0.04 in1.0 mm
11:45 AM 61.7°F16.5°C 57.8°F14.3°C 87% 0.1 mph W0.2 kmh W 2.1 mph3.4 kmh 29.68 in1005.1 mb 0.00 in0.0 mm 0.00 in0.0 mm 0.04 in1.0 mm
12:00 PM 62.1°F16.7°C 58.5°F14.7°C 88% 0.7 mph WNW1.1 kmh WNW 5.4 mph8.7 kmh 29.68 in1005.1 mb 0.00 in0.0 mm 0.00 in0.0 mm 0.04 in1.0 mm
12:15 PM 62.4°F16.9°C 58.2°F14.6°C 86% 1.4 mph W2.3 kmh W 5.4 mph8.7 kmh 29.71 in1006.1 mb 0.00 in0.0 mm 0.00 in0.0 mm 0.04 in1.0 mm
12:30 PM 62.2°F16.8°C 57.7°F14.3°C 85% 0.4 mph WNW0.6 kmh WNW 4.7 mph7.6 kmh 29.68 in1005.1 mb 0.00 in0.0 mm 0.00 in0.0 mm 0.04 in1.0 mm
12:45 PM 62.4°F16.9°C 57.8°F14.3°C 85% 0.9 mph WSW1.4 kmh WSW 8.6 mph13.8 kmh 29.68 in1005.1 mb 0.00 in0.0 mm 0.00 in0.0 mm 0.04 in1.0 mm
01:00 PM 62.2°F16.8°C 57.0°F13.9°C 83% 2.3 mph W3.7 kmh W 6.8 mph10.9 kmh 29.68 in1005.1 mb 0.00 in0.0 mm 0.00 in0.0 mm 0.04 in1.0 mm
01:15 PM 62.4°F16.9°C 56.9°F13.8°C 82% 0.6 mph W1.0 kmh W 5.7 mph9.2 kmh 29.68 in1005.1 mb 0.00 in0.0 mm 0.00 in0.0 mm 0.04 in1.0 mm
01:30 PM 62.6°F17.0°C 57.0°F13.9°C 82% 0.7 mph WSW1.1 kmh WSW 4.3 mph6.9 kmh 29.68 in1005.1 mb 0.00 in0.0 mm 0.00 in0.0 mm 0.04 in1.0 mm
01:45 PM 63.1°F17.3°C 57.6°F14.2°C 82% 1.1 mph NW1.8 kmh NW 4.3 mph6.9 kmh 29.65 in1004.1 mb 0.00 in0.0 mm 0.00 in0.0 mm 0.04 in1.0 mm
02:00 PM 63.7°F17.6°C 58.1°F14.5°C 82% 2.1 mph W3.4 kmh W 8.6 mph13.8 kmh 29.65 in1004.1 mb 0.00 in0.0 mm 0.00 in0.0 mm 0.04 in1.0 mm
02:15 PM 64.4°F18.0°C 58.4°F14.7°C 81% 1.2 mph NW1.9 kmh NW 5.7 mph9.2 kmh 29.68 in1005.1 mb 0.00 in0.0 mm 0.00 in0.0 mm 0.04 in1.0 mm
02:30 PM 64.6°F18.1°C 58.3°F14.6°C 80% 2.3 mph W3.7 kmh W 6.4 mph10.3 kmh 29.68 in1005.1 mb 0.00 in0.0 mm 0.00 in0.0 mm 0.04 in1.0 mm
02:45 PM 65.1°F18.4°C 58.8°F14.9°C 80% 3.3 mph SW5.3 kmh SW 10.0 mph16.1 kmh 29.65 in1004.1 mb 0.00 in0.0 mm 0.00 in0.0 mm 0.04 in1.0 mm
03:00 PM 64.9°F18.3°C 58.3°F14.6°C 79% 4.1 mph WSW6.6 kmh WSW 9.3 mph15.0 kmh 29.68 in1005.1 mb 0.00 in0.0 mm 0.00 in0.0 mm 0.04 in1.0 mm
03:15 PM 64.4°F18.0°C 57.7°F14.3°C 79% 3.6 mph SW5.8 kmh SW 7.5 mph12.1 kmh 29.68 in1005.1 mb 0.00 in0.0 mm 0.00 in0.0 mm 0.04 in1.0 mm
03:30 PM 63.7°F17.6°C 57.0°F13.9°C 79% 2.9 mph SSW4.7 kmh SSW 7.5 mph12.1 kmh 29.68 in1005.1 mb 0.00 in0.0 mm 0.00 in0.0 mm 0.04 in1.0 mm
03:45 PM 63.7°F17.6°C 57.4°F14.1°C 80% 3.8 mph S6.1 kmh S 11.5 mph18.5 kmh 29.68 in1005.1 mb 0.00 in0.0 mm 0.00 in0.0 mm 0.04 in1.0 mm
04:00 PM 64.4°F18.0°C 57.7°F14.3°C 79% 4.2 mph S6.8 kmh S 10.4 mph16.7 kmh 29.68 in1005.1 mb 0.00 in0.0 mm 0.00 in0.0 mm 0.04 in1.0 mm
04:15 PM 64.4°F18.0°C 57.7°F14.3°C 79% 4.1 mph S6.6 kmh S 14.0 mph22.5 kmh 29.65 in1004.1 mb 0.00 in0.0 mm 0.00 in0.0 mm 0.04 in1.0 mm
04:30 PM 63.5°F17.5°C 56.9°F13.8°C 79% 3.0 mph S4.8 kmh S 10.4 mph16.7 kmh 29.65 in1004.1 mb 0.00 in0.0 mm 0.00 in0.0 mm 0.04 in1.0 mm
04:45 PM 62.1°F16.7°C 56.8°F13.8°C 83% 5.2 mph SSW8.4 kmh SSW 12.9 mph20.8 kmh 29.65 in1004.1 mb 0.00 in0.0 mm 0.00 in0.0 mm 0.04 in1.0 mm
05:00 PM 61.7°F16.5°C 57.1°F13.9°C 85% 3.3 mph WSW5.3 kmh WSW 8.9 mph14.3 kmh 29.65 in1004.1 mb 0.00 in0.0 mm 0.00 in0.0 mm 0.04 in1.0 mm
05:15 PM 61.2°F16.2°C 57.3°F14.1°C 87% 4.9 mph S7.9 kmh S 12.2 mph19.6 kmh 29.65 in1004.1 mb 0.04 in1.0 mm 0.16 in4.1 mm 0.09 in2.3 mm
05:30 PM 61.0°F16.1°C 57.7°F14.3°C 89% 3.8 mph S6.1 kmh S 10.7 mph17.2 kmh 29.65 in1004.1 mb 0.10 in2.5 mm 0.24 in6.1 mm 0.14 in3.6 mm
05:45 PM 60.8°F16.0°C 57.8°F14.3°C 90% 4.3 mph S6.9 kmh S 12.2 mph19.6 kmh 29.65 in1004.1 mb 0.10 in2.5 mm 0.00 in0.0 mm 0.14 in3.6 mm
06:00 PM 61.0°F16.1°C 58.3°F14.6°C 91% 2.8 mph S4.5 kmh S 7.9 mph12.7 kmh 29.65 in1004.1 mb 0.10 in2.5 mm 0.00 in0.0 mm 0.14 in3.6 mm
06:15 PM 60.8°F16.0°C 58.5°F14.7°C 92% 3.8 mph SSW6.1 kmh SSW 8.6 mph13.8 kmh 29.62 in1003.0 mb 0.06 in1.5 mm 0.00 in0.0 mm 0.14 in3.6 mm
06:30 PM 60.8°F16.0°C 58.8°F14.9°C 93% 4.2 mph S6.8 kmh S 9.7 mph15.6 kmh 29.62 in1003.0 mb 0.00 in0.0 mm 0.00 in0.0 mm 0.14 in3.6 mm
06:45 PM 61.0°F16.1°C 59.2°F15.1°C 94% 4.2 mph S6.8 kmh S 9.3 mph15.0 kmh 29.62 in1003.0 mb 0.00 in0.0 mm 0.00 in0.0 mm 0.14 in3.6 mm
07:00 PM 60.8°F16.0°C 59.1°F15.1°C 94% 4.8 mph S7.7 kmh S 10.7 mph17.2 kmh 29.59 in1002.0 mb 0.03 in0.8 mm 0.04 in1.0 mm 0.18 in4.6 mm
07:15 PM 60.8°F16.0°C 59.4°F15.2°C 95% 5.1 mph S8.2 kmh S 12.2 mph19.6 kmh 29.59 in1002.0 mb 0.13 in3.3 mm 0.40 in10.2 mm 0.28 in7.1 mm
07:30 PM 60.8°F16.0°C 59.7°F15.4°C 96% 5.0 mph S8.0 kmh S 10.0 mph16.1 kmh 29.62 in1003.0 mb 0.26 in6.6 mm 0.52 in13.2 mm 0.41 in10.4 mm
07:45 PM 61.0°F16.1°C 59.8°F15.4°C 96% 4.6 mph SW7.4 kmh SW 9.7 mph15.6 kmh 29.62 in1003.0 mb 0.36 in9.1 mm 0.40 in10.2 mm 0.51 in13.0 mm
08:00 PM 61.2°F16.2°C 60.0°F15.6°C 96% 5.4 mph WSW8.7 kmh WSW 12.9 mph20.8 kmh 29.62 in1003.0 mb 0.33 in8.4 mm 0.00 in0.0 mm 0.51 in13.0 mm
08:15 PM 61.2°F16.2°C 60.3°F15.7°C 97% 5.0 mph WSW8.0 kmh WSW 10.4 mph16.7 kmh 29.62 in1003.0 mb 0.23 in5.8 mm 0.00 in0.0 mm 0.51 in13.0 mm
08:30 PM 61.2°F16.2°C 60.3°F15.7°C 97% 4.0 mph W6.4 kmh W 6.4 mph10.3 kmh 29.62 in1003.0 mb 0.10 in2.5 mm 0.00 in0.0 mm 0.51 in13.0 mm
08:45 PM 61.5°F16.4°C 60.7°F15.9°C 97% 4.8 mph WSW7.7 kmh WSW 11.8 mph19.0 kmh 29.62 in1003.0 mb 0.04 in1.0 mm 0.00 in0.0 mm 0.55 in14.0 mm
09:00 PM 61.5°F16.4°C 60.7°F15.9°C 97% 6.7 mph W10.8 kmh W 13.6 mph21.9 kmh 29.62 in1003.0 mb 0.04 in1.0 mm 0.00 in0.0 mm 0.55 in14.0 mm
09:15 PM 60.4°F15.8°C 59.6°F15.3°C 97% 5.0 mph W8.0 kmh W 10.4 mph16.7 kmh 29.62 in1003.0 mb 0.04 in1.0 mm 0.00 in0.0 mm 0.55 in14.0 mm
09:30 PM 59.9°F15.5°C 59.0°F15.0°C 97% 5.7 mph WNW9.2 kmh WNW 11.5 mph18.5 kmh 29.62 in1003.0 mb 0.04 in1.0 mm 0.00 in0.0 mm 0.55 in14.0 mm
09:45 PM 59.2°F15.1°C 58.0°F14.4°C 96% 5.3 mph W8.5 kmh W 12.9 mph20.8 kmh 29.59 in1002.0 mb 0.00 in0.0 mm 0.00 in0.0 mm 0.55 in14.0 mm
10:00 PM 59.0°F15.0°C 57.9°F14.4°C 96% 5.5 mph W8.9 kmh W 13.6 mph21.9 kmh 29.62 in1003.0 mb 0.00 in0.0 mm 0.00 in0.0 mm 0.55 in14.0 mm
10:15 PM 59.2°F15.1°C 58.3°F14.6°C 97% 5.0 mph W8.0 kmh W 10.4 mph16.7 kmh 29.62 in1003.0 mb 0.00 in0.0 mm 0.00 in0.0 mm 0.55 in14.0 mm
10:30 PM 59.4°F15.2°C 58.5°F14.7°C 97% 4.2 mph WNW6.8 kmh WNW 12.9 mph20.8 kmh 29.62 in1003.0 mb 0.00 in0.0 mm 0.00 in0.0 mm 0.55 in14.0 mm
10:45 PM 59.5°F15.3°C 58.7°F14.8°C 97% 2.8 mph W4.5 kmh W 9.3 mph15.0 kmh 29.62 in1003.0 mb 0.00 in0.0 mm 0.00 in0.0 mm 0.55 in14.0 mm
11:00 PM 59.7°F15.4°C 58.9°F14.9°C 97% 3.5 mph W5.6 kmh W 8.9 mph14.3 kmh 29.62 in1003.0 mb 0.00 in0.0 mm 0.00 in0.0 mm 0.50 in12.7 mm
11:15 PM 59.7°F15.4°C 58.9°F14.9°C 97% 4.7 mph W7.6 kmh W 12.9 mph20.8 kmh 29.62 in1003.0 mb 0.00 in0.0 mm 0.00 in0.0 mm 0.50 in12.7 mm
11:30 PM 59.9°F15.5°C 59.0°F15.0°C 97% 5.1 mph W8.2 kmh W 11.8 mph19.0 kmh 29.62 in1003.0 mb 0.00 in0.0 mm 0.00 in0.0 mm 0.50 in12.7 mm
11:45 PM 59.7°F15.4°C 58.9°F14.9°C 97% 5.4 mph W8.7 kmh W 15.4 mph24.8 kmh 29.62 in1003.0 mb 0.00 in0.0 mm 0.00 in0.0 mm 0.50 in12.7 mm